sensor_id;sensor_type;location;lat;lon;timestamp;P1;durP1;ratioP1;P2;durP2;ratioP2
7583;SDS011;3833;41.764;26.204;2023-01-05T00:00:51;56.37;;;40.23;;
7583;SDS011;3833;41.764;26.204;2023-01-05T00:03:18;50.57;;;38.17;;
7583;SDS011;3833;41.764;26.204;2023-01-05T00:05:45;55.70;;;38.70;;
7583;SDS011;3833;41.764;26.204;2023-01-05T00:08:12;60.57;;;39.80;;
7583;SDS011;3833;41.764;26.204;2023-01-05T00:10:40;58.03;;;40.80;;
7583;SDS011;3833;41.764;26.204;2023-01-05T00:13:30;59.93;;;42.33;;
7583;SDS011;3833;41.764;26.204;2023-01-05T00:16:14;59.97;;;39.93;;
7583;SDS011;3833;41.764;26.204;2023-01-05T00:18:58;55.50;;;38.63;;
7583;SDS011;3833;41.764;26.204;2023-01-05T00:21:42;47.57;;;33.77;;
7583;SDS011;3833;41.764;26.204;2023-01-05T00:24:29;51.83;;;34.07;;
7583;SDS011;3833;41.764;26.204;2023-01-05T00:26:57;53.20;;;35.93;;
7583;SDS011;3833;41.764;26.204;2023-01-05T00:29:24;51.90;;;36.57;;
7583;SDS011;3833;41.764;26.204;2023-01-05T00:31:51;49.60;;;35.33;;
7583;SDS011;3833;41.764;26.204;2023-01-05T00:34:18;47.33;;;34.50;;
7583;SDS011;3833;41.764;26.204;2023-01-05T00:36:44;51.87;;;36.23;;
7583;SDS011;3833;41.764;26.204;2023-01-05T00:39:11;45.83;;;32.63;;
7583;SDS011;3833;41.764;26.204;2023-01-05T00:41:38;49.10;;;34.17;;
7583;SDS011;3833;41.764;26.204;2023-01-05T00:44:06;45.93;;;32.53;;
7583;SDS011;3833;41.764;26.204;2023-01-05T00:46:33;51.83;;;34.33;;
7583;SDS011;3833;41.764;26.204;2023-01-05T00:49:00;45.37;;;30.33;;
7583;SDS011;3833;41.764;26.204;2023-01-05T00:51:27;40.80;;;29.87;;
7583;SDS011;3833;41.764;26.204;2023-01-05T00:53:54;41.20;;;29.67;;
7583;SDS011;3833;41.764;26.204;2023-01-05T00:56:20;42.53;;;29.33;;
7583;SDS011;3833;41.764;26.204;2023-01-05T00:58:47;40.70;;;28.33;;
7583;SDS011;3833;41.764;26.204;2023-01-05T01:01:19;40.03;;;27.43;;
7583;SDS011;3833;41.764;26.204;2023-01-05T01:03:46;37.47;;;25.03;;
7583;SDS011;3833;41.764;26.204;2023-01-05T01:06:13;37.73;;;26.43;;
7583;SDS011;3833;41.764;26.204;2023-01-05T01:08:40;33.10;;;25.33;;
7583;SDS011;3833;41.764;26.204;2023-01-05T01:11:08;28.57;;;21.00;;
7583;SDS011;3833;41.764;26.204;2023-01-05T01:13:36;33.43;;;21.63;;
7583;SDS011;3833;41.764;26.204;2023-01-05T01:16:07;33.83;;;23.10;;
7583;SDS011;3833;41.764;26.204;2023-01-05T01:18:35;31.53;;;22.10;;
7583;SDS011;3833;41.764;26.204;2023-01-05T01:21:03;28.57;;;19.53;;
7583;SDS011;3833;41.764;26.204;2023-01-05T01:23:30;23.93;;;19.10;;
7583;SDS011;3833;41.764;26.204;2023-01-05T01:25:58;25.57;;;19.73;;
7583;SDS011;3833;41.764;26.204;2023-01-05T01:28:25;23.80;;;17.83;;
7583;SDS011;3833;41.764;26.204;2023-01-05T01:30:51;26.53;;;17.77;;
7583;SDS011;3833;41.764;26.204;2023-01-05T01:33:18;23.83;;;18.13;;
7583;SDS011;3833;41.764;26.204;2023-01-05T01:35:47;24.30;;;18.60;;
7583;SDS011;3833;41.764;26.204;2023-01-05T01:38:14;24.77;;;17.37;;
7583;SDS011;3833;41.764;26.204;2023-01-05T01:40:41;23.17;;;17.30;;
7583;SDS011;3833;41.764;26.204;2023-01-05T01:43:11;25.13;;;18.57;;
7583;SDS011;3833;41.764;26.204;2023-01-05T01:45:39;25.27;;;18.83;;
7583;SDS011;3833;41.764;26.204;2023-01-05T01:48:06;26.60;;;19.40;;
7583;SDS011;3833;41.764;26.204;2023-01-05T01:50:35;24.70;;;19.73;;
7583;SDS011;3833;41.764;26.204;2023-01-05T01:53:09;29.10;;;19.10;;
7583;SDS011;3833;41.764;26.204;2023-01-05T01:55:40;33.37;;;21.50;;
7583;SDS011;3833;41.764;26.204;2023-01-05T01:58:08;29.50;;;19.80;;
7583;SDS011;3833;41.764;26.204;2023-01-05T02:00:39;28.10;;;20.20;;
7583;SDS011;3833;41.764;26.204;2023-01-05T02:03:06;25.27;;;18.57;;
7583;SDS011;3833;41.764;26.204;2023-01-05T02:05:34;28.57;;;19.90;;
7583;SDS011;3833;41.764;26.204;2023-01-05T02:08:02;26.70;;;19.03;;
7583;SDS011;3833;41.764;26.204;2023-01-05T02:10:37;25.00;;;17.50;;
7583;SDS011;3833;41.764;26.204;2023-01-05T02:13:20;26.10;;;19.30;;
7583;SDS011;3833;41.764;26.204;2023-01-05T02:16:01;28.87;;;19.70;;
7583;SDS011;3833;41.764;26.204;2023-01-05T02:18:41;27.83;;;20.13;;
7583;SDS011;3833;41.764;26.204;2023-01-05T02:21:24;24.07;;;19.10;;
7583;SDS011;3833;41.764;26.204;2023-01-05T02:24:16;30.23;;;20.87;;
7583;SDS011;3833;41.764;26.204;2023-01-05T02:27:22;28.50;;;20.30;;
7583;SDS011;3833;41.764;26.204;2023-01-05T02:33:35;26.23;;;19.73;;
7583;SDS011;3833;41.764;26.204;2023-01-05T02:36:10;28.20;;;19.20;;
7583;SDS011;3833;41.764;26.204;2023-01-05T02:38:41;29.00;;;19.60;;
7583;SDS011;3833;41.764;26.204;2023-01-05T02:41:15;26.27;;;19.30;;
7583;SDS011;3833;41.764;26.204;2023-01-05T02:43:54;28.93;;;19.87;;
7583;SDS011;3833;41.764;26.204;2023-01-05T02:46:21;31.20;;;20.57;;
7583;SDS011;3833;41.764;26.204;2023-01-05T02:48:50;28.33;;;19.63;;
7583;SDS011;3833;41.764;26.204;2023-01-05T02:51:20;28.77;;;20.07;;
7583;SDS011;3833;41.764;26.204;2023-01-05T02:53:50;30.33;;;19.20;;
7583;SDS011;3833;41.764;26.204;2023-01-05T02:56:23;33.87;;;20.37;;
7583;SDS011;3833;41.764;26.204;2023-01-05T02:58:53;30.90;;;20.17;;
7583;SDS011;3833;41.764;26.204;2023-01-05T03:01:24;31.27;;;19.67;;
7583;SDS011;3833;41.764;26.204;2023-01-05T03:03:56;33.70;;;21.00;;
7583;SDS011;3833;41.764;26.204;2023-01-05T03:06:29;24.77;;;18.40;;
7583;SDS011;3833;41.764;26.204;2023-01-05T03:09:01;27.63;;;19.77;;
7583;SDS011;3833;41.764;26.204;2023-01-05T03:11:32;28.20;;;20.00;;
7583;SDS011;3833;41.764;26.204;2023-01-05T03:14:21;29.90;;;19.63;;
7583;SDS011;3833;41.764;26.204;2023-01-05T03:16:52;28.23;;;19.77;;
7583;SDS011;3833;41.764;26.204;2023-01-05T03:19:22;27.40;;;18.47;;
7583;SDS011;3833;41.764;26.204;2023-01-05T03:22:05;27.67;;;18.43;;
7583;SDS011;3833;41.764;26.204;2023-01-05T03:24:57;27.23;;;19.33;;
7583;SDS011;3833;41.764;26.204;2023-01-05T03:27:42;28.27;;;18.27;;
7583;SDS011;3833;41.764;26.204;2023-01-05T03:30:31;21.70;;;16.10;;
7583;SDS011;3833;41.764;26.204;2023-01-05T03:33:22;25.83;;;17.57;;
7583;SDS011;3833;41.764;26.204;2023-01-05T03:36:15;25.37;;;16.73;;
7583;SDS011;3833;41.764;26.204;2023-01-05T03:38:48;22.77;;;17.07;;
7583;SDS011;3833;41.764;26.204;2023-01-05T03:41:18;25.13;;;17.53;;
7583;SDS011;3833;41.764;26.204;2023-01-05T03:43:47;23.63;;;15.63;;
7583;SDS011;3833;41.764;26.204;2023-01-05T03:46:17;23.23;;;16.50;;
7583;SDS011;3833;41.764;26.204;2023-01-05T03:48:46;23.23;;;15.90;;
7583;SDS011;3833;41.764;26.204;2023-01-05T03:51:14;23.97;;;16.17;;
7583;SDS011;3833;41.764;26.204;2023-01-05T03:53:43;27.13;;;18.83;;
7583;SDS011;3833;41.764;26.204;2023-01-05T03:56:10;23.00;;;18.30;;
7583;SDS011;3833;41.764;26.204;2023-01-05T03:58:36;23.77;;;18.00;;
7583;SDS011;3833;41.764;26.204;2023-01-05T04:01:03;21.80;;;15.80;;
7583;SDS011;3833;41.764;26.204;2023-01-05T04:03:31;21.40;;;15.97;;
7583;SDS011;3833;41.764;26.204;2023-01-05T04:05:58;17.17;;;14.03;;
7583;SDS011;3833;41.764;26.204;2023-01-05T04:08:26;19.20;;;15.13;;
7583;SDS011;3833;41.764;26.204;2023-01-05T04:10:53;17.67;;;13.70;;
7583;SDS011;3833;41.764;26.204;2023-01-05T04:13:20;19.80;;;14.97;;
7583;SDS011;3833;41.764;26.204;2023-01-05T04:15:47;21.40;;;14.83;;
7583;SDS011;3833;41.764;26.204;2023-01-05T04:18:14;22.10;;;14.00;;
7583;SDS011;3833;41.764;26.204;2023-01-05T04:20:41;19.37;;;14.60;;
7583;SDS011;3833;41.764;26.204;2023-01-05T04:23:08;23.30;;;14.07;;
7583;SDS011;3833;41.764;26.204;2023-01-05T04:25:36;18.20;;;14.43;;
7583;SDS011;3833;41.764;26.204;2023-01-05T04:28:03;18.30;;;13.70;;
7583;SDS011;3833;41.764;26.204;2023-01-05T04:30:30;18.00;;;13.80;;
7583;SDS011;3833;41.764;26.204;2023-01-05T04:32:57;19.13;;;14.63;;
7583;SDS011;3833;41.764;26.204;2023-01-05T04:35:23;21.20;;;14.60;;
7583;SDS011;3833;41.764;26.204;2023-01-05T04:37:50;20.07;;;14.30;;
7583;SDS011;3833;41.764;26.204;2023-01-05T04:40:17;21.37;;;15.73;;
7583;SDS011;3833;41.764;26.204;2023-01-05T04:42:46;29.57;;;16.80;;
7583;SDS011;3833;41.764;26.204;2023-01-05T04:45:13;24.70;;;17.00;;
7583;SDS011;3833;41.764;26.204;2023-01-05T04:47:40;22.33;;;16.10;;
7583;SDS011;3833;41.764;26.204;2023-01-05T04:50:07;22.83;;;16.87;;
7583;SDS011;3833;41.764;26.204;2023-01-05T04:52:34;23.80;;;17.23;;
7583;SDS011;3833;41.764;26.204;2023-01-05T04:55:01;21.57;;;16.87;;
7583;SDS011;3833;41.764;26.204;2023-01-05T04:57:28;29.70;;;19.20;;
7583;SDS011;3833;41.764;26.204;2023-01-05T04:59:56;26.97;;;18.57;;
7583;SDS011;3833;41.764;26.204;2023-01-05T05:02:24;23.03;;;17.20;;
7583;SDS011;3833;41.764;26.204;2023-01-05T05:04:51;23.87;;;17.50;;
7583;SDS011;3833;41.764;26.204;2023-01-05T05:07:17;20.17;;;17.07;;
7583;SDS011;3833;41.764;26.204;2023-01-05T05:09:44;23.20;;;17.30;;
7583;SDS011;3833;41.764;26.204;2023-01-05T05:12:11;29.20;;;18.97;;
7583;SDS011;3833;41.764;26.204;2023-01-05T05:14:38;26.37;;;18.37;;
7583;SDS011;3833;41.764;26.204;2023-01-05T05:17:06;28.20;;;18.20;;
7583;SDS011;3833;41.764;26.204;2023-01-05T05:19:33;24.17;;;17.13;;
7583;SDS011;3833;41.764;26.204;2023-01-05T05:22:00;23.90;;;16.77;;
7583;SDS011;3833;41.764;26.204;2023-01-05T05:24:28;22.57;;;16.53;;
7583;SDS011;3833;41.764;26.204;2023-01-05T05:26:54;22.33;;;16.43;;
7583;SDS011;3833;41.764;26.204;2023-01-05T05:29:21;23.13;;;17.03;;
7583;SDS011;3833;41.764;26.204;2023-01-05T05:31:48;23.53;;;16.93;;
7583;SDS011;3833;41.764;26.204;2023-01-05T05:34:17;23.17;;;15.37;;
7583;SDS011;3833;41.764;26.204;2023-01-05T05:36:44;22.23;;;16.97;;
7583;SDS011;3833;41.764;26.204;2023-01-05T05:39:11;24.50;;;17.43;;
7583;SDS011;3833;41.764;26.204;2023-01-05T05:41:38;23.10;;;16.50;;
7583;SDS011;3833;41.764;26.204;2023-01-05T05:44:05;24.63;;;17.17;;
7583;SDS011;3833;41.764;26.204;2023-01-05T05:46:32;24.53;;;15.90;;
7583;SDS011;3833;41.764;26.204;2023-01-05T05:48:59;26.73;;;19.07;;
7583;SDS011;3833;41.764;26.204;2023-01-05T05:51:27;21.80;;;16.67;;
7583;SDS011;3833;41.764;26.204;2023-01-05T05:53:54;21.20;;;16.93;;
7583;SDS011;3833;41.764;26.204;2023-01-05T05:56:21;19.27;;;15.43;;
7583;SDS011;3833;41.764;26.204;2023-01-05T05:58:48;20.53;;;15.20;;
7583;SDS011;3833;41.764;26.204;2023-01-05T06:01:14;21.77;;;16.90;;
7583;SDS011;3833;41.764;26.204;2023-01-05T06:03:41;19.63;;;14.90;;
7583;SDS011;3833;41.764;26.204;2023-01-05T06:06:08;22.77;;;15.67;;
7583;SDS011;3833;41.764;26.204;2023-01-05T06:08:36;18.80;;;14.43;;
7583;SDS011;3833;41.764;26.204;2023-01-05T06:11:03;20.83;;;14.93;;
7583;SDS011;3833;41.764;26.204;2023-01-05T06:13:32;22.03;;;16.30;;
7583;SDS011;3833;41.764;26.204;2023-01-05T06:15:59;21.90;;;16.67;;
7583;SDS011;3833;41.764;26.204;2023-01-05T06:18:26;25.10;;;16.57;;
7583;SDS011;3833;41.764;26.204;2023-01-05T06:20:53;23.30;;;15.97;;
7583;SDS011;3833;41.764;26.204;2023-01-05T06:23:20;21.67;;;17.03;;
7583;SDS011;3833;41.764;26.204;2023-01-05T06:25:48;20.17;;;16.17;;
7583;SDS011;3833;41.764;26.204;2023-01-05T06:28:15;24.70;;;14.77;;
7583;SDS011;3833;41.764;26.204;2023-01-05T06:30:42;20.63;;;16.00;;
7583;SDS011;3833;41.764;26.204;2023-01-05T06:33:09;17.27;;;13.83;;
7583;SDS011;3833;41.764;26.204;2023-01-05T06:35:35;21.57;;;14.70;;
7583;SDS011;3833;41.764;26.204;2023-01-05T06:38:02;21.53;;;16.47;;
7583;SDS011;3833;41.764;26.204;2023-01-05T06:40:29;114.70;;;35.00;;
7583;SDS011;3833;41.764;26.204;2023-01-05T06:42:57;65.23;;;27.37;;
7583;SDS011;3833;41.764;26.204;2023-01-05T06:45:24;52.83;;;26.47;;
7583;SDS011;3833;41.764;26.204;2023-01-05T06:47:51;31.00;;;19.50;;
7583;SDS011;3833;41.764;26.204;2023-01-05T06:50:18;98.60;;;27.70;;
7583;SDS011;3833;41.764;26.204;2023-01-05T06:52:44;278.33;;;48.03;;
7583;SDS011;3833;41.764;26.204;2023-01-05T06:55:11;304.03;;;56.37;;
7583;SDS011;3833;41.764;26.204;2023-01-05T06:57:38;153.13;;;43.70;;
7583;SDS011;3833;41.764;26.204;2023-01-05T07:00:07;79.77;;;34.57;;
7583;SDS011;3833;41.764;26.204;2023-01-05T07:02:36;67.77;;;33.73;;
7583;SDS011;3833;41.764;26.204;2023-01-05T07:05:03;54.90;;;31.00;;
7583;SDS011;3833;41.764;26.204;2023-01-05T07:07:30;51.57;;;28.80;;
7583;SDS011;3833;41.764;26.204;2023-01-05T07:09:57;59.77;;;29.70;;
7583;SDS011;3833;41.764;26.204;2023-01-05T07:12:24;49.07;;;32.60;;
7583;SDS011;3833;41.764;26.204;2023-01-05T07:14:51;43.73;;;29.23;;
7583;SDS011;3833;41.764;26.204;2023-01-05T07:17:19;41.13;;;27.27;;
7583;SDS011;3833;41.764;26.204;2023-01-05T07:19:46;58.30;;;47.33;;
7583;SDS011;3833;41.764;26.204;2023-01-05T07:22:13;69.60;;;37.90;;
7583;SDS011;3833;41.764;26.204;2023-01-05T07:24:40;66.53;;;30.20;;
7583;SDS011;3833;41.764;26.204;2023-01-05T07:27:07;69.10;;;25.17;;
7583;SDS011;3833;41.764;26.204;2023-01-05T07:29:34;92.37;;;36.17;;
7583;SDS011;3833;41.764;26.204;2023-01-05T07:32:01;58.93;;;26.93;;
7583;SDS011;3833;41.764;26.204;2023-01-05T07:34:29;80.30;;;28.83;;
7583;SDS011;3833;41.764;26.204;2023-01-05T07:36:56;49.97;;;26.70;;
7583;SDS011;3833;41.764;26.204;2023-01-05T07:39:23;55.87;;;27.33;;
7583;SDS011;3833;41.764;26.204;2023-01-05T07:41:50;39.33;;;25.47;;
7583;SDS011;3833;41.764;26.204;2023-01-05T07:44:16;40.03;;;28.43;;
7583;SDS011;3833;41.764;26.204;2023-01-05T07:46:43;35.27;;;27.47;;
7583;SDS011;3833;41.764;26.204;2023-01-05T07:49:10;30.80;;;22.37;;
7583;SDS011;3833;41.764;26.204;2023-01-05T07:51:38;28.53;;;23.40;;
7583;SDS011;3833;41.764;26.204;2023-01-05T07:54:05;46.80;;;41.07;;
7583;SDS011;3833;41.764;26.204;2023-01-05T07:56:32;57.80;;;49.73;;
7583;SDS011;3833;41.764;26.204;2023-01-05T07:58:59;64.20;;;53.67;;
7583;SDS011;3833;41.764;26.204;2023-01-05T08:01:26;62.37;;;47.50;;
7583;SDS011;3833;41.764;26.204;2023-01-05T08:03:53;50.07;;;37.73;;
7583;SDS011;3833;41.764;26.204;2023-01-05T08:06:19;45.60;;;32.33;;
7583;SDS011;3833;41.764;26.204;2023-01-05T08:08:48;36.77;;;28.93;;
7583;SDS011;3833;41.764;26.204;2023-01-05T08:11:15;51.60;;;46.07;;
7583;SDS011;3833;41.764;26.204;2023-01-05T08:13:45;69.77;;;59.20;;
7583;SDS011;3833;41.764;26.204;2023-01-05T08:16:28;55.00;;;49.67;;
7583;SDS011;3833;41.764;26.204;2023-01-05T08:18:56;35.63;;;27.77;;
7583;SDS011;3833;41.764;26.204;2023-01-05T08:21:23;28.70;;;22.63;;
7583;SDS011;3833;41.764;26.204;2023-01-05T08:23:52;32.27;;;25.30;;
7583;SDS011;3833;41.764;26.204;2023-01-05T08:26:20;45.00;;;39.83;;
7583;SDS011;3833;41.764;26.204;2023-01-05T08:28:48;50.60;;;46.30;;
7583;SDS011;3833;41.764;26.204;2023-01-05T08:31:16;52.70;;;47.50;;
7583;SDS011;3833;41.764;26.204;2023-01-05T08:33:45;55.97;;;50.47;;
7583;SDS011;3833;41.764;26.204;2023-01-05T08:36:13;37.43;;;31.67;;
7583;SDS011;3833;41.764;26.204;2023-01-05T08:38:40;32.33;;;26.10;;
7583;SDS011;3833;41.764;26.204;2023-01-05T08:41:14;39.97;;;32.03;;
7583;SDS011;3833;41.764;26.204;2023-01-05T08:43:42;27.93;;;21.73;;
7583;SDS011;3833;41.764;26.204;2023-01-05T08:46:08;36.17;;;33.03;;
7583;SDS011;3833;41.764;26.204;2023-01-05T08:48:35;41.10;;;37.43;;
7583;SDS011;3833;41.764;26.204;2023-01-05T08:51:02;40.53;;;37.30;;
7583;SDS011;3833;41.764;26.204;2023-01-05T08:53:31;42.43;;;38.73;;
7583;SDS011;3833;41.764;26.204;2023-01-05T08:55:58;28.00;;;24.80;;
7583;SDS011;3833;41.764;26.204;2023-01-05T08:58:27;28.97;;;25.87;;
7583;SDS011;3833;41.764;26.204;2023-01-05T09:00:53;31.47;;;25.33;;
7583;SDS011;3833;41.764;26.204;2023-01-05T09:03:20;33.10;;;26.73;;
7583;SDS011;3833;41.764;26.204;2023-01-05T09:05:47;45.93;;;42.40;;
7583;SDS011;3833;41.764;26.204;2023-01-05T09:08:18;47.73;;;43.43;;
7583;SDS011;3833;41.764;26.204;2023-01-05T09:10:46;47.53;;;43.77;;
7583;SDS011;3833;41.764;26.204;2023-01-05T09:13:13;39.57;;;36.13;;
7583;SDS011;3833;41.764;26.204;2023-01-05T09:15:41;29.73;;;25.70;;
7583;SDS011;3833;41.764;26.204;2023-01-05T09:18:08;46.10;;;42.60;;
7583;SDS011;3833;41.764;26.204;2023-01-05T09:20:34;40.07;;;36.87;;
7583;SDS011;3833;41.764;26.204;2023-01-05T09:23:01;46.23;;;42.67;;
7583;SDS011;3833;41.764;26.204;2023-01-05T09:25:28;46.20;;;42.70;;
7583;SDS011;3833;41.764;26.204;2023-01-05T09:27:55;23.63;;;21.23;;
7583;SDS011;3833;41.764;26.204;2023-01-05T09:30:22;40.40;;;37.53;;
7583;SDS011;3833;41.764;26.204;2023-01-05T09:32:50;39.17;;;36.10;;
7583;SDS011;3833;41.764;26.204;2023-01-05T09:35:17;27.80;;;25.30;;
7583;SDS011;3833;41.764;26.204;2023-01-05T09:37:44;29.63;;;27.13;;
7583;SDS011;3833;41.764;26.204;2023-01-05T09:40:11;26.30;;;21.97;;
7583;SDS011;3833;41.764;26.204;2023-01-05T09:42:40;24.00;;;20.80;;
7583;SDS011;3833;41.764;26.204;2023-01-05T09:45:10;22.67;;;19.73;;
7583;SDS011;3833;41.764;26.204;2023-01-05T09:47:52;40.70;;;37.17;;
7583;SDS011;3833;41.764;26.204;2023-01-05T09:50:23;37.33;;;34.03;;
7583;SDS011;3833;41.764;26.204;2023-01-05T09:52:53;45.17;;;41.13;;
7583;SDS011;3833;41.764;26.204;2023-01-05T09:55:23;40.50;;;37.00;;
7583;SDS011;3833;41.764;26.204;2023-01-05T09:57:52;26.30;;;20.13;;
7583;SDS011;3833;41.764;26.204;2023-01-05T10:00:22;42.13;;;38.73;;
7583;SDS011;3833;41.764;26.204;2023-01-05T10:02:51;47.10;;;43.20;;
7583;SDS011;3833;41.764;26.204;2023-01-05T10:05:22;42.67;;;38.83;;
7583;SDS011;3833;41.764;26.204;2023-01-05T10:07:52;43.57;;;40.07;;
7583;SDS011;3833;41.764;26.204;2023-01-05T10:10:28;33.80;;;24.60;;
7583;SDS011;3833;41.764;26.204;2023-01-05T10:13:07;37.07;;;27.63;;
7583;SDS011;3833;41.764;26.204;2023-01-05T10:15:47;48.73;;;43.77;;
7583;SDS011;3833;41.764;26.204;2023-01-05T10:18:17;41.17;;;37.53;;
7583;SDS011;3833;41.764;26.204;2023-01-05T10:20:55;38.70;;;34.83;;
7583;SDS011;3833;41.764;26.204;2023-01-05T10:23:36;36.27;;;32.70;;
7583;SDS011;3833;41.764;26.204;2023-01-05T10:26:16;28.83;;;23.40;;
7583;SDS011;3833;41.764;26.204;2023-01-05T10:28:50;31.80;;;23.57;;
7583;SDS011;3833;41.764;26.204;2023-01-05T10:31:23;38.10;;;34.50;;
7583;SDS011;3833;41.764;26.204;2023-01-05T10:34:05;38.53;;;35.00;;
7583;SDS011;3833;41.764;26.204;2023-01-05T10:36:58;37.53;;;33.63;;
7583;SDS011;3833;41.764;26.204;2023-01-05T10:39:47;35.30;;;31.70;;
7583;SDS011;3833;41.764;26.204;2023-01-05T10:42:26;33.23;;;24.30;;
7583;SDS011;3833;41.764;26.204;2023-01-05T10:45:09;34.90;;;31.40;;
7583;SDS011;3833;41.764;26.204;2023-01-05T10:47:38;36.10;;;32.37;;
7583;SDS011;3833;41.764;26.204;2023-01-05T10:50:19;32.70;;;29.37;;
7583;SDS011;3833;41.764;26.204;2023-01-05T10:52:54;29.03;;;26.20;;
7583;SDS011;3833;41.764;26.204;2023-01-05T10:55:23;53.43;;;38.50;;
7583;SDS011;3833;41.764;26.204;2023-01-05T10:57:52;29.13;;;24.10;;
7583;SDS011;3833;41.764;26.204;2023-01-05T11:00:20;36.67;;;32.67;;
7583;SDS011;3833;41.764;26.204;2023-01-05T11:03:04;33.23;;;29.90;;
7583;SDS011;3833;41.764;26.204;2023-01-05T11:05:34;33.40;;;30.00;;
7583;SDS011;3833;41.764;26.204;2023-01-05T11:08:04;42.93;;;38.33;;
7583;SDS011;3833;41.764;26.204;2023-01-05T11:10:40;32.83;;;25.30;;
7583;SDS011;3833;41.764;26.204;2023-01-05T11:13:17;27.00;;;22.10;;
7583;SDS011;3833;41.764;26.204;2023-01-05T11:15:55;35.53;;;32.50;;
7583;SDS011;3833;41.764;26.204;2023-01-05T11:18:26;40.97;;;37.47;;
7583;SDS011;3833;41.764;26.204;2023-01-05T11:21:12;38.57;;;34.77;;
7583;SDS011;3833;41.764;26.204;2023-01-05T11:23:41;32.10;;;27.63;;
7583;SDS011;3833;41.764;26.204;2023-01-05T11:29:11;34.77;;;31.90;;
7583;SDS011;3833;41.764;26.204;2023-01-05T11:31:43;36.07;;;32.97;;
7583;SDS011;3833;41.764;26.204;2023-01-05T11:34:34;36.97;;;33.53;;
7583;SDS011;3833;41.764;26.204;2023-01-05T11:37:06;27.93;;;22.50;;
7583;SDS011;3833;41.764;26.204;2023-01-05T11:39:47;24.40;;;19.60;;
7583;SDS011;3833;41.764;26.204;2023-01-05T11:42:17;29.73;;;22.83;;
7583;SDS011;3833;41.764;26.204;2023-01-05T11:44:45;23.70;;;18.83;;
7583;SDS011;3833;41.764;26.204;2023-01-05T11:47:19;21.83;;;18.53;;
7583;SDS011;3833;41.764;26.204;2023-01-05T11:49:55;23.13;;;18.60;;
7583;SDS011;3833;41.764;26.204;2023-01-05T11:52:31;28.80;;;22.60;;
7583;SDS011;3833;41.764;26.204;2023-01-05T11:55:14;24.23;;;21.37;;
7583;SDS011;3833;41.764;26.204;2023-01-05T11:57:52;25.43;;;19.53;;
7583;SDS011;3833;41.764;26.204;2023-01-05T12:00:23;25.57;;;18.80;;
7583;SDS011;3833;41.764;26.204;2023-01-05T12:02:58;22.80;;;19.30;;
7583;SDS011;3833;41.764;26.204;2023-01-05T12:05:39;24.30;;;19.97;;
7583;SDS011;3833;41.764;26.204;2023-01-05T12:08:14;21.87;;;18.93;;
7583;SDS011;3833;41.764;26.204;2023-01-05T12:10:57;22.87;;;18.83;;
7583;SDS011;3833;41.764;26.204;2023-01-05T12:13:44;21.70;;;17.93;;
7583;SDS011;3833;41.764;26.204;2023-01-05T12:16:26;17.97;;;15.73;;
7583;SDS011;3833;41.764;26.204;2023-01-05T12:22:08;32.83;;;26.03;;
7583;SDS011;3833;41.764;26.204;2023-01-05T12:25:00;19.67;;;16.67;;
7583;SDS011;3833;41.764;26.204;2023-01-05T12:27:35;21.33;;;17.40;;
7583;SDS011;3833;41.764;26.204;2023-01-05T12:30:24;21.37;;;17.33;;
7583;SDS011;3833;41.764;26.204;2023-01-05T12:33:02;17.40;;;13.80;;
7583;SDS011;3833;41.764;26.204;2023-01-05T12:35:50;18.63;;;16.53;;
7583;SDS011;3833;41.764;26.204;2023-01-05T12:38:34;39.77;;;36.67;;
7583;SDS011;3833;41.764;26.204;2023-01-05T12:41:13;34.67;;;32.17;;
7583;SDS011;3833;41.764;26.204;2023-01-05T12:43:54;33.30;;;30.77;;
7583;SDS011;3833;41.764;26.204;2023-01-05T12:46:41;31.27;;;28.77;;
7583;SDS011;3833;41.764;26.204;2023-01-05T12:49:20;21.93;;;16.60;;
7583;SDS011;3833;41.764;26.204;2023-01-05T12:51:51;20.57;;;16.10;;
7583;SDS011;3833;41.764;26.204;2023-01-05T12:54:27;19.33;;;14.97;;
7583;SDS011;3833;41.764;26.204;2023-01-05T12:56:59;18.23;;;14.07;;
7583;SDS011;3833;41.764;26.204;2023-01-05T12:59:33;15.33;;;12.57;;
7583;SDS011;3833;41.764;26.204;2023-01-05T13:02:08;14.60;;;13.00;;
7583;SDS011;3833;41.764;26.204;2023-01-05T13:04:48;15.53;;;12.80;;
7583;SDS011;3833;41.764;26.204;2023-01-05T13:07:22;13.27;;;11.87;;
7583;SDS011;3833;41.764;26.204;2023-01-05T13:09:55;18.50;;;12.83;;
7583;SDS011;3833;41.764;26.204;2023-01-05T13:12:26;15.63;;;12.70;;
7583;SDS011;3833;41.764;26.204;2023-01-05T13:14:59;16.13;;;12.80;;
7583;SDS011;3833;41.764;26.204;2023-01-05T13:17:32;17.07;;;12.67;;
7583;SDS011;3833;41.764;26.204;2023-01-05T13:20:03;15.00;;;13.47;;
7583;SDS011;3833;41.764;26.204;2023-01-05T13:22:40;17.90;;;13.43;;
7583;SDS011;3833;41.764;26.204;2023-01-05T13:25:13;21.47;;;18.50;;
7583;SDS011;3833;41.764;26.204;2023-01-05T13:27:45;24.83;;;17.73;;
7583;SDS011;3833;41.764;26.204;2023-01-05T13:30:14;17.53;;;13.67;;
7583;SDS011;3833;41.764;26.204;2023-01-05T13:35:45;19.17;;;13.03;;
7583;SDS011;3833;41.764;26.204;2023-01-05T13:41:27;19.37;;;17.10;;
7583;SDS011;3833;41.764;26.204;2023-01-05T13:44:08;22.27;;;20.17;;
7583;SDS011;3833;41.764;26.204;2023-01-05T13:47:14;25.70;;;23.63;;
7583;SDS011;3833;41.764;26.204;2023-01-05T13:50:02;25.87;;;23.53;;
7583;SDS011;3833;41.764;26.204;2023-01-05T13:53:03;18.83;;;15.67;;
7583;SDS011;3833;41.764;26.204;2023-01-05T13:55:36;18.10;;;13.47;;
7583;SDS011;3833;41.764;26.204;2023-01-05T13:58:16;15.77;;;13.93;;
7583;SDS011;3833;41.764;26.204;2023-01-05T14:00:57;16.97;;;13.57;;
7583;SDS011;3833;41.764;26.204;2023-01-05T14:03:26;23.00;;;21.00;;
7583;SDS011;3833;41.764;26.204;2023-01-05T14:05:55;23.23;;;21.17;;
7583;SDS011;3833;41.764;26.204;2023-01-05T14:08:25;22.80;;;20.60;;
7583;SDS011;3833;41.764;26.204;2023-01-05T14:11:10;20.90;;;19.17;;
7583;SDS011;3833;41.764;26.204;2023-01-05T14:13:41;18.77;;;13.17;;
7583;SDS011;3833;41.764;26.204;2023-01-05T14:22:21;16.10;;;13.97;;
7583;SDS011;3833;41.764;26.204;2023-01-05T14:25:02;24.13;;;21.80;;
7583;SDS011;3833;41.764;26.204;2023-01-05T14:28:15;23.10;;;20.80;;
7583;SDS011;3833;41.764;26.204;2023-01-05T14:30:44;24.47;;;22.17;;
7583;SDS011;3833;41.764;26.204;2023-01-05T14:33:12;19.10;;;17.30;;
7583;SDS011;3833;41.764;26.204;2023-01-05T14:35:43;13.10;;;11.00;;
7583;SDS011;3833;41.764;26.204;2023-01-05T14:38:14;27.87;;;25.67;;
7583;SDS011;3833;41.764;26.204;2023-01-05T14:40:45;24.80;;;23.00;;
7583;SDS011;3833;41.764;26.204;2023-01-05T14:43:22;26.13;;;24.17;;
7583;SDS011;3833;41.764;26.204;2023-01-05T14:45:57;22.97;;;21.27;;
7583;SDS011;3833;41.764;26.204;2023-01-05T14:48:29;17.57;;;15.97;;
7583;SDS011;3833;41.764;26.204;2023-01-05T14:53:53;22.97;;;20.87;;
7583;SDS011;3833;41.764;26.204;2023-01-05T14:56:23;21.87;;;19.87;;
7583;SDS011;3833;41.764;26.204;2023-01-05T14:59:03;20.63;;;18.63;;
7583;SDS011;3833;41.764;26.204;2023-01-05T15:01:37;16.70;;;15.10;;
7583;SDS011;3833;41.764;26.204;2023-01-05T15:04:12;17.83;;;15.93;;
7583;SDS011;3833;41.764;26.204;2023-01-05T15:06:49;16.37;;;14.77;;
7583;SDS011;3833;41.764;26.204;2023-01-05T15:09:29;17.10;;;15.33;;
7583;SDS011;3833;41.764;26.204;2023-01-05T15:12:10;19.73;;;17.77;;
7583;SDS011;3833;41.764;26.204;2023-01-05T15:14:51;19.43;;;17.63;;
7583;SDS011;3833;41.764;26.204;2023-01-05T15:17:45;21.00;;;18.03;;
7583;SDS011;3833;41.764;26.204;2023-01-05T15:23:56;17.50;;;15.60;;
7583;SDS011;3833;41.764;26.204;2023-01-05T15:26:54;20.17;;;15.47;;
7583;SDS011;3833;41.764;26.204;2023-01-05T15:29:38;17.87;;;15.60;;